createdAt,value
2022-07-29T00:00:57.214Z,44.83
2022-07-29T00:03:23.727Z,44.35
2022-07-29T00:05:50.308Z,45.24
2022-07-29T00:08:16.777Z,45.66
2022-07-29T00:10:43.465Z,45.43
2022-07-29T00:13:09.929Z,45.78
2022-07-29T00:15:36.511Z,45.99
2022-07-29T00:18:03.049Z,45.81
2022-07-29T00:20:29.479Z,46.18
2022-07-29T00:22:56.032Z,46.04
2022-07-29T00:25:22.514Z,46.19
2022-07-29T00:27:49.097Z,46.62
2022-07-29T00:30:15.682Z,46.68
2022-07-29T00:32:42.281Z,47.29
2022-07-29T00:35:28.004Z,47.23
2022-07-29T00:37:54.538Z,46.19
2022-07-29T00:40:23.343Z,47.01
2022-07-29T00:42:51.099Z,46.07
2022-07-29T00:45:17.926Z,47.16
2022-07-29T00:47:44.538Z,46.68
2022-07-29T00:50:11.738Z,48.16
2022-07-29T00:52:39.103Z,47.62
2022-07-29T00:55:08.760Z,48.49
2022-07-29T00:57:35.795Z,47.82
2022-07-29T01:00:02.554Z,47.83
2022-07-29T01:02:29.154Z,47.69
2022-07-29T01:04:58.016Z,47.03
2022-07-29T01:07:25.627Z,47.25
2022-07-29T01:09:52.711Z,47.23
2022-07-29T01:12:20.702Z,47.08
2022-07-29T01:14:48.793Z,48.41
2022-07-29T01:17:18.941Z,48.21
2022-07-29T01:19:52.149Z,49.40
2022-07-29T01:22:37.605Z,49.15
2022-07-29T01:25:22.680Z,48.64
2022-07-29T01:28:01.707Z,48.64
2022-07-29T01:30:30.862Z,48.56
2022-07-29T01:32:59.924Z,49.05
2022-07-29T01:35:29.747Z,49.02
2022-07-29T01:38:06.465Z,48.47
2022-07-29T01:40:40.260Z,49.19
2022-07-29T01:43:18.470Z,48.85
2022-07-29T01:45:48.138Z,49.21
2022-07-29T01:48:20.771Z,49.17
2022-07-29T01:50:52.939Z,48.97
2022-07-29T01:53:38.440Z,48.91
2022-07-29T01:56:05.842Z,48.96
2022-07-29T01:58:33.817Z,49.25
2022-07-29T02:01:00.951Z,49.30
2022-07-29T02:03:28.086Z,49.40
2022-07-29T02:05:54.854Z,49.16
2022-07-29T02:08:22.725Z,49.14
2022-07-29T02:10:49.906Z,49.42
2022-07-29T02:13:17.901Z,49.47
2022-07-29T02:15:45.714Z,49.66
2022-07-29T02:18:15.307Z,49.72
2022-07-29T02:20:43.707Z,48.82
2022-07-29T02:23:11.658Z,49.68
2022-07-29T02:25:38.599Z,48.96
2022-07-29T02:28:06.295Z,49.64
2022-07-29T02:30:33.223Z,49.92
2022-07-29T02:32:59.905Z,49.82
2022-07-29T02:35:26.916Z,49.83
2022-07-29T02:38:13.152Z,49.72
2022-07-29T02:40:40.812Z,49.87
2022-07-29T02:43:09.170Z,49.33
2022-07-29T02:45:35.711Z,49.52
2022-07-29T02:48:07.120Z,49.43
2022-07-29T02:50:40.325Z,50.05
2022-07-29T02:53:09.295Z,49.62
2022-07-29T02:55:45.875Z,49.49
2022-07-29T02:58:12.388Z,49.44
2022-07-29T03:00:40.290Z,50.06
2022-07-29T03:03:09.927Z,49.95
2022-07-29T03:05:36.390Z,49.62
2022-07-29T03:08:05.679Z,49.94
2022-07-29T03:10:32.780Z,49.97
2022-07-29T03:12:59.763Z,50.35
2022-07-29T03:15:26.844Z,50.04
2022-07-29T03:17:53.993Z,50.56
2022-07-29T03:20:20.842Z,51.11
2022-07-29T03:22:50.301Z,50.69
2022-07-29T03:25:18.171Z,50.52
2022-07-29T03:27:45.170Z,50.85
2022-07-29T03:30:12.660Z,50.10
2022-07-29T03:32:44.750Z,50.67
2022-07-29T03:35:11.851Z,50.40
2022-07-29T03:37:38.283Z,50.43
2022-07-29T03:40:08.220Z,50.84
2022-07-29T03:42:36.642Z,51.49
2022-07-29T03:45:04.615Z,51.30
2022-07-29T03:47:43.487Z,50.57
2022-07-29T03:50:19.245Z,51.29
2022-07-29T03:52:46.429Z,51.65
2022-07-29T03:55:13.147Z,51.81
2022-07-29T03:57:40.792Z,50.76
2022-07-29T04:00:08.027Z,51.77
2022-07-29T04:02:34.900Z,51.75
2022-07-29T04:05:01.476Z,51.98
2022-07-29T04:07:28.126Z,51.26
2022-07-29T04:09:54.681Z,51.97
2022-07-29T04:12:22.045Z,51.99
2022-07-29T04:14:48.709Z,51.28
2022-07-29T04:17:15.208Z,52.28
2022-07-29T04:19:41.689Z,52.53
2022-07-29T04:22:08.200Z,52.46
2022-07-29T04:24:35.521Z,52.87
2022-07-29T04:27:02.047Z,52.90
2022-07-29T04:29:28.548Z,53.08
2022-07-29T04:31:55.153Z,52.28
2022-07-29T04:34:21.724Z,52.36
2022-07-29T04:36:48.240Z,53.00
2022-07-29T04:39:19.305Z,52.91
2022-07-29T04:41:49.156Z,52.72
2022-07-29T04:44:15.926Z,52.17
2022-07-29T04:46:43.742Z,52.60
2022-07-29T04:49:10.326Z,52.44
2022-07-29T04:51:37.040Z,52.88
2022-07-29T04:54:03.602Z,52.65
2022-07-29T04:56:30.129Z,52.42
2022-07-29T04:58:56.778Z,52.13
2022-07-29T05:01:23.412Z,52.07
2022-07-29T05:03:49.952Z,52.04
2022-07-29T05:06:16.487Z,52.03
2022-07-29T05:08:42.995Z,52.03
2022-07-29T05:11:12.007Z,51.58
2022-07-29T05:13:45.340Z,51.76
2022-07-29T05:16:14.279Z,51.68
2022-07-29T05:18:41.022Z,51.64
2022-07-29T05:21:07.508Z,51.80
2022-07-29T05:23:34.221Z,51.38
2022-07-29T05:26:00.676Z,51.28
2022-07-29T05:28:27.246Z,50.74
2022-07-29T05:30:53.814Z,50.75
2022-07-29T05:33:34.664Z,49.84
2022-07-29T05:36:03.560Z,49.58
2022-07-29T05:38:30.119Z,49.26
2022-07-29T05:40:57.763Z,49.23
2022-07-29T05:43:24.253Z,49.14
2022-07-29T05:45:51.085Z,49.22
2022-07-29T05:48:18.043Z,48.82
2022-07-29T05:50:44.525Z,48.99
2022-07-29T05:53:18.955Z,48.91
2022-07-29T05:55:46.865Z,48.67
2022-07-29T05:58:13.504Z,48.66
2022-07-29T06:00:39.951Z,48.04
2022-07-29T06:03:06.573Z,48.39
2022-07-29T06:05:33.115Z,48.13
2022-07-29T06:07:59.666Z,47.91
2022-07-29T06:10:27.026Z,47.70
2022-07-29T06:12:53.837Z,47.30
2022-07-29T06:15:20.636Z,47.45
2022-07-29T06:18:00.640Z,47.12
2022-07-29T06:20:30.827Z,46.67
2022-07-29T06:22:57.837Z,46.50
2022-07-29T06:25:24.333Z,46.63
2022-07-29T06:27:50.853Z,46.15
2022-07-29T06:30:17.385Z,45.93
2022-07-29T06:32:43.932Z,46.47
2022-07-29T06:35:39.298Z,45.73
2022-07-29T06:37:59.555Z,45.03
2022-07-29T06:40:45.056Z,45.29
2022-07-29T06:43:11.894Z,44.48
2022-07-29T06:45:42.286Z,44.84
2022-07-29T06:48:09.328Z,44.54
2022-07-29T06:50:35.930Z,44.84
2022-07-29T06:53:02.638Z,45.05
2022-07-29T06:55:29.120Z,44.73
2022-07-29T06:57:55.772Z,44.46
2022-07-29T07:00:22.307Z,44.79
2022-07-29T07:02:49.032Z,44.72
2022-07-29T07:05:15.557Z,44.73
2022-07-29T07:07:42.094Z,44.87
2022-07-29T07:10:08.777Z,44.75
2022-07-29T07:12:35.287Z,44.29
2022-07-29T07:15:01.741Z,43.93
2022-07-29T07:17:28.243Z,43.90
2022-07-29T07:19:54.717Z,43.91
2022-07-29T07:22:21.343Z,43.46
2022-07-29T07:24:47.865Z,42.76
2022-07-29T07:27:14.387Z,43.03
2022-07-29T07:29:44.210Z,42.58
2022-07-29T07:32:10.965Z,42.16
2022-07-29T07:34:38.968Z,41.37
2022-07-29T07:37:05.971Z,41.76
2022-07-29T07:39:32.502Z,40.94
2022-07-29T07:41:59.027Z,40.97
2022-07-29T07:44:25.533Z,40.54
2022-07-29T07:46:52.023Z,40.52
2022-07-29T07:49:18.756Z,40.01
2022-07-29T07:51:50.664Z,40.74
2022-07-29T07:54:20.623Z,40.38
2022-07-29T07:56:50.849Z,40.39
2022-07-29T07:59:19.751Z,39.92
2022-07-29T08:01:48.444Z,39.50
2022-07-29T08:04:27.332Z,39.31
2022-07-29T08:06:55.720Z,39.74
2022-07-29T08:09:29.239Z,39.83
2022-07-29T08:11:57.310Z,38.87
2022-07-29T08:14:23.832Z,38.31
2022-07-29T08:16:50.367Z,38.08
2022-07-29T08:19:17.017Z,37.73
2022-07-29T08:21:43.466Z,37.71
2022-07-29T08:24:28.634Z,37.44
2022-07-29T08:26:55.228Z,37.91
2022-07-29T08:29:21.717Z,37.40
2022-07-29T08:31:48.271Z,37.62
2022-07-29T08:34:14.823Z,37.53
2022-07-29T08:36:41.355Z,37.72
2022-07-29T08:39:07.897Z,37.35
2022-07-29T08:41:34.484Z,36.88
2022-07-29T08:44:01.083Z,37.30
2022-07-29T08:46:27.596Z,36.43
2022-07-29T08:48:54.323Z,36.96
2022-07-29T08:51:21.639Z,37.28
2022-07-29T08:53:49.429Z,37.42
2022-07-29T08:56:19.826Z,37.64
2022-07-29T08:58:50.660Z,38.18
2022-07-29T09:01:21.817Z,38.43
2022-07-29T09:03:49.948Z,38.66
2022-07-29T09:06:19.177Z,38.42
2022-07-29T09:08:46.175Z,37.59
2022-07-29T09:11:13.187Z,37.86
2022-07-29T09:13:39.710Z,38.59
2022-07-29T09:16:09.420Z,38.00
2022-07-29T09:18:36.921Z,38.11
2022-07-29T09:21:22.386Z,38.97
2022-07-29T09:24:02.298Z,38.67
2022-07-29T09:26:30.715Z,38.80
2022-07-29T09:28:57.740Z,38.93
2022-07-29T09:31:34.580Z,39.29
2022-07-29T09:34:01.547Z,39.27
2022-07-29T09:36:28.096Z,39.13
2022-07-29T09:39:01.167Z,38.90
2022-07-29T09:41:30.844Z,39.33
2022-07-29T09:43:57.934Z,38.58
2022-07-29T09:46:25.249Z,38.96
2022-07-29T09:49:12.116Z,38.38
2022-07-29T09:51:38.987Z,38.56
2022-07-29T09:54:26.780Z,37.77
2022-07-29T09:56:54.268Z,38.08
2022-07-29T09:59:23.298Z,38.38
2022-07-29T10:01:51.088Z,37.77
2022-07-29T10:04:18.178Z,38.13
2022-07-29T10:07:04.680Z,38.31
2022-07-29T10:09:31.595Z,37.44
2022-07-29T10:12:05.154Z,37.28
2022-07-29T10:14:35.225Z,37.15
2022-07-29T10:17:04.726Z,36.91
2022-07-29T10:19:32.225Z,37.26
2022-07-29T10:21:59.465Z,37.07
2022-07-29T10:24:27.611Z,36.69
2022-07-29T10:26:55.710Z,36.29
2022-07-29T10:29:22.357Z,35.89
2022-07-29T10:32:01.289Z,36.25
2022-07-29T10:34:35.538Z,36.13
2022-07-29T10:37:27.479Z,35.83
2022-07-29T10:40:34.017Z,36.08
2022-07-29T10:43:08.646Z,35.72
2022-07-29T10:45:35.486Z,35.06
2022-07-29T10:48:07.937Z,35.76
2022-07-29T10:50:55.061Z,34.90
2022-07-29T10:53:22.836Z,35.05
2022-07-29T10:55:51.413Z,35.45
2022-07-29T10:58:21.887Z,35.34
2022-07-29T11:00:49.757Z,35.30
2022-07-29T11:03:35.423Z,34.50
2022-07-29T11:06:02.388Z,34.43
2022-07-29T11:08:35.345Z,34.49
2022-07-29T11:11:34.983Z,34.60
2022-07-29T11:14:02.163Z,34.16
2022-07-29T11:16:48.589Z,34.46
2022-07-29T11:19:15.882Z,34.21
2022-07-29T11:21:58.381Z,33.17
2022-07-29T11:24:28.962Z,33.74
2022-07-29T11:27:14.932Z,32.83
2022-07-29T11:29:50.898Z,32.79
2022-07-29T11:32:22.850Z,32.02
2022-07-29T11:34:50.422Z,30.61
2022-07-29T11:37:19.888Z,30.62
2022-07-29T11:39:48.568Z,30.47
2022-07-29T11:42:28.838Z,30.93
2022-07-29T11:44:59.394Z,30.99
2022-07-29T11:47:39.747Z,31.32
2022-07-29T11:50:10.347Z,30.48
2022-07-29T11:52:50.022Z,30.48
2022-07-29T11:55:18.326Z,30.37
2022-07-29T11:58:04.050Z,29.88
2022-07-29T12:00:36.005Z,30.11
2022-07-29T12:03:05.153Z,29.34
2022-07-29T12:05:52.043Z,29.62
2022-07-29T12:08:20.653Z,29.66
2022-07-29T12:10:48.580Z,29.10
2022-07-29T12:13:16.437Z,27.93
2022-07-29T12:15:47.003Z,28.08
2022-07-29T12:18:18.666Z,27.23
2022-07-29T12:20:45.966Z,26.86
2022-07-29T12:23:16.058Z,26.58
2022-07-29T12:25:44.257Z,27.56
2022-07-29T12:28:26.562Z,26.74
2022-07-29T12:30:53.673Z,26.36
2022-07-29T12:33:28.534Z,26.16
2022-07-29T12:36:06.788Z,25.42
2022-07-29T12:38:35.755Z,25.95
2022-07-29T12:41:02.559Z,26.28
2022-07-29T12:43:31.422Z,25.10
2022-07-29T12:45:58.216Z,25.14
2022-07-29T12:48:41.148Z,24.93
2022-07-29T12:51:08.911Z,23.79
2022-07-29T12:53:36.008Z,23.36
2022-07-29T12:56:07.964Z,22.70
2022-07-29T12:58:43.080Z,23.61
2022-07-29T13:01:16.947Z,23.60
2022-07-29T13:03:44.103Z,23.09
2022-07-29T13:06:45.762Z,23.36
2022-07-29T13:09:12.823Z,23.35
2022-07-29T13:11:50.341Z,23.02
2022-07-29T13:14:35.014Z,22.65
2022-07-29T13:17:01.510Z,22.96
2022-07-29T13:19:38.807Z,24.26
2022-07-29T13:22:05.648Z,23.14
2022-07-29T13:24:32.183Z,22.92
2022-07-29T13:26:58.728Z,22.22
2022-07-29T13:29:29.759Z,22.71
2022-07-29T13:31:58.111Z,23.03
2022-07-29T13:34:25.314Z,20.68
2022-07-29T13:36:51.870Z,21.70
2022-07-29T13:39:18.355Z,21.62
2022-07-29T13:41:44.887Z,21.79
2022-07-29T13:44:11.856Z,21.49
2022-07-29T13:46:40.051Z,21.52
2022-07-29T13:49:06.771Z,22.44
2022-07-29T13:51:33.510Z,21.76
2022-07-29T13:54:00.018Z,21.32
2022-07-29T13:56:27.308Z,22.03
2022-07-29T13:58:53.838Z,21.52
2022-07-29T14:01:20.442Z,21.53
2022-07-29T14:03:47.006Z,21.94
2022-07-29T14:06:14.340Z,22.02
2022-07-29T14:08:41.373Z,22.42
2022-07-29T14:11:08.007Z,22.64
2022-07-29T14:13:34.765Z,20.99
2022-07-29T14:16:01.315Z,21.58
2022-07-29T14:18:27.884Z,20.89
2022-07-29T14:20:54.611Z,20.96
2022-07-29T14:23:21.136Z,21.65
2022-07-29T14:25:47.721Z,21.93
2022-07-29T14:28:16.252Z,22.61
2022-07-29T14:30:43.008Z,22.58
2022-07-29T14:33:09.557Z,23.29
2022-07-29T14:35:36.133Z,22.94
2022-07-29T14:38:02.666Z,23.48
2022-07-29T14:40:29.273Z,23.24
2022-07-29T14:42:55.829Z,23.66
2022-07-29T14:45:22.558Z,23.67
2022-07-29T14:47:50.603Z,23.46
2022-07-29T14:50:17.450Z,24.11
2022-07-29T14:52:50.103Z,23.92
2022-07-29T14:55:20.202Z,24.54
2022-07-29T14:57:47.070Z,25.22
2022-07-29T15:00:13.730Z,24.69
2022-07-29T15:03:00.386Z,24.49
2022-07-29T15:05:27.209Z,24.99
2022-07-29T15:07:54.561Z,24.32
2022-07-29T15:10:21.121Z,24.56
2022-07-29T15:12:47.598Z,25.44
2022-07-29T15:15:14.154Z,25.14
2022-07-29T15:17:40.827Z,24.82
2022-07-29T15:20:07.636Z,25.30
2022-07-29T15:22:34.174Z,25.63
2022-07-29T15:25:00.827Z,25.75
2022-07-29T15:27:27.378Z,25.89
2022-07-29T15:29:53.883Z,25.54
2022-07-29T15:32:20.408Z,26.13
2022-07-29T15:34:46.933Z,26.18
2022-07-29T15:37:13.553Z,26.18
2022-07-29T15:39:39.998Z,26.06
2022-07-29T15:42:06.737Z,26.23
2022-07-29T15:44:33.336Z,25.98
2022-07-29T15:47:07.303Z,26.53
2022-07-29T15:49:47.555Z,26.65
2022-07-29T15:52:15.992Z,26.22
2022-07-29T15:54:42.473Z,26.48
2022-07-29T15:57:10.233Z,26.78
2022-07-29T15:59:36.801Z,26.35
2022-07-29T16:02:04.074Z,26.92
2022-07-29T16:04:31.972Z,26.56
2022-07-29T16:06:58.937Z,26.89
2022-07-29T16:09:26.469Z,26.65
2022-07-29T16:11:54.126Z,26.81
2022-07-29T16:14:21.009Z,26.86
2022-07-29T16:16:48.356Z,26.64
2022-07-29T16:19:14.906Z,27.62
2022-07-29T16:21:41.364Z,27.18
2022-07-29T16:24:08.107Z,27.27
2022-07-29T16:26:35.130Z,27.37
2022-07-29T16:29:01.735Z,27.84
2022-07-29T16:31:28.322Z,27.76
2022-07-29T16:33:56.039Z,27.93
2022-07-29T16:36:22.940Z,27.99
2022-07-29T16:38:50.157Z,28.29
2022-07-29T16:41:16.697Z,28.23
2022-07-29T16:43:43.254Z,28.35
2022-07-29T16:46:12.484Z,28.52
2022-07-29T16:48:44.963Z,28.81
2022-07-29T16:51:11.836Z,28.59
2022-07-29T16:53:41.174Z,28.86
2022-07-29T16:56:08.479Z,28.92
2022-07-29T16:58:41.764Z,29.01
2022-07-29T17:01:10.231Z,29.17
2022-07-29T17:03:59.922Z,29.46
2022-07-29T17:06:27.136Z,29.52
2022-07-29T17:08:53.707Z,29.41
2022-07-29T17:11:20.166Z,29.52
2022-07-29T17:13:46.653Z,29.61
2022-07-29T17:16:13.332Z,29.83
2022-07-29T17:18:39.841Z,30.07
2022-07-29T17:21:06.363Z,31.00
2022-07-29T17:23:32.887Z,32.56
2022-07-29T17:25:59.344Z,33.23
2022-07-29T17:28:25.853Z,33.92
2022-07-29T17:30:52.401Z,33.82
2022-07-29T17:33:19.108Z,34.48
2022-07-29T17:36:04.052Z,34.03
2022-07-29T17:38:30.559Z,35.06
2022-07-29T17:40:57.181Z,35.49
2022-07-29T17:43:23.649Z,35.08
2022-07-29T17:45:51.339Z,35.21
2022-07-29T17:48:18.398Z,35.99
2022-07-29T17:50:45.709Z,35.34
2022-07-29T17:53:15.801Z,36.32
2022-07-29T17:55:45.343Z,35.27
2022-07-29T17:58:12.501Z,35.48
2022-07-29T18:00:39.218Z,36.29
2022-07-29T18:03:06.019Z,36.88
2022-07-29T18:05:33.018Z,37.49
2022-07-29T18:07:59.595Z,41.12
2022-07-29T18:10:26.083Z,43.12
2022-07-29T18:12:52.612Z,45.03
2022-07-29T18:15:19.224Z,48.30
2022-07-29T18:17:57.038Z,50.26
2022-07-29T18:20:23.958Z,51.42
2022-07-29T18:22:51.219Z,55.06
2022-07-29T18:25:17.685Z,55.29
2022-07-29T18:27:44.204Z,59.52
2022-07-29T18:30:10.793Z,61.12
2022-07-29T18:32:37.338Z,65.34
2022-07-29T18:35:05.812Z,67.18
2022-07-29T18:38:01.917Z,69.88
2022-07-29T18:40:21.032Z,72.13
2022-07-29T18:42:47.718Z,73.62
2022-07-29T18:45:19.539Z,75.46
2022-07-29T18:47:47.483Z,76.04
2022-07-29T18:50:14.750Z,76.96
2022-07-29T18:52:41.295Z,74.36
2022-07-29T18:55:08.332Z,75.35
2022-07-29T18:57:56.193Z,76.52
2022-07-29T19:00:22.668Z,75.24
2022-07-29T19:02:49.333Z,75.25
2022-07-29T19:05:15.991Z,74.64
2022-07-29T19:07:42.507Z,76.12
2022-07-29T19:10:09.297Z,76.60
2022-07-29T19:12:35.832Z,79.14
2022-07-29T19:15:03.144Z,77.88
2022-07-29T19:17:29.619Z,80.25
2022-07-29T19:19:56.147Z,80.62
2022-07-29T19:22:23.014Z,80.79
2022-07-29T19:24:50.370Z,82.88
2022-07-29T19:27:17.420Z,84.40
2022-07-29T19:29:44.334Z,84.60
2022-07-29T19:32:10.790Z,86.54
2022-07-29T19:34:37.600Z,87.00
2022-07-29T19:37:04.191Z,88.13
2022-07-29T19:39:31.953Z,88.79
2022-07-29T19:42:03.366Z,89.50
2022-07-29T19:44:30.241Z,90.69
2022-07-29T19:46:57.032Z,89.00
2022-07-29T19:49:23.932Z,89.83
2022-07-29T19:51:50.543Z,89.36
2022-07-29T19:54:19.887Z,88.01
2022-07-29T19:56:46.336Z,87.96
2022-07-29T19:59:12.821Z,87.58
2022-07-29T20:01:39.563Z,88.50
2022-07-29T20:04:06.166Z,89.23
2022-07-29T20:06:32.772Z,90.02
2022-07-29T20:08:59.275Z,89.62
2022-07-29T20:11:26.607Z,90.27
2022-07-29T20:13:53.124Z,91.24
2022-07-29T20:16:19.737Z,91.14
2022-07-29T20:18:46.233Z,91.04
2022-07-29T20:21:13.439Z,89.33
2022-07-29T20:23:39.938Z,89.34
2022-07-29T20:26:09.463Z,90.22
2022-07-29T20:28:37.185Z,90.19
2022-07-29T20:31:03.835Z,90.33
2022-07-29T20:33:30.427Z,89.94
2022-07-29T20:35:56.960Z,91.60
2022-07-29T20:38:23.411Z,92.82
2022-07-29T20:40:50.826Z,92.92
2022-07-29T20:43:17.347Z,92.32
2022-07-29T20:45:43.803Z,92.48
2022-07-29T20:48:10.655Z,94.77
2022-07-29T20:50:37.170Z,95.09
2022-07-29T20:53:03.704Z,95.15
2022-07-29T20:55:31.996Z,95.92
2022-07-29T20:57:58.873Z,95.63
2022-07-29T21:00:25.329Z,96.35
2022-07-29T21:02:51.923Z,96.53
2022-07-29T21:05:18.455Z,95.49
2022-07-29T21:07:44.989Z,93.96
2022-07-29T21:10:11.502Z,96.06
2022-07-29T21:12:37.988Z,94.67
2022-07-29T21:15:06.594Z,95.63
2022-07-29T21:17:38.973Z,95.99
2022-07-29T21:20:08.599Z,94.78
2022-07-29T21:22:35.151Z,93.47
2022-07-29T21:25:01.807Z,93.55
2022-07-29T21:27:46.662Z,93.35
2022-07-29T21:30:13.372Z,92.46
2022-07-29T21:32:39.922Z,92.11
2022-07-29T21:35:14.558Z,91.88
2022-07-29T21:37:53.161Z,91.83
2022-07-29T21:40:19.613Z,91.49
2022-07-29T21:42:46.114Z,91.15
2022-07-29T21:45:13.546Z,91.02
2022-07-29T21:47:40.019Z,89.48
2022-07-29T21:50:06.688Z,88.84
2022-07-29T21:52:33.185Z,88.38
2022-07-29T21:54:59.686Z,89.73
2022-07-29T21:57:26.579Z,89.35
2022-07-29T21:59:53.098Z,88.49
2022-07-29T22:02:19.583Z,86.97
2022-07-29T22:04:46.173Z,87.13
2022-07-29T22:07:12.717Z,89.81
2022-07-29T22:09:39.310Z,89.96
2022-07-29T22:12:06.165Z,89.39
2022-07-29T22:14:35.368Z,89.55
2022-07-29T22:17:02.931Z,89.65
2022-07-29T22:19:38.464Z,89.85
2022-07-29T22:22:05.773Z,90.76
2022-07-29T22:24:32.684Z,90.89
2022-07-29T22:27:00.020Z,90.71
2022-07-29T22:29:27.718Z,90.33
2022-07-29T22:31:55.693Z,89.26
2022-07-29T22:34:22.656Z,91.58
2022-07-29T22:36:49.620Z,93.90
2022-07-29T22:39:16.307Z,95.14
2022-07-29T22:41:42.875Z,93.88
2022-07-29T22:44:09.344Z,94.89
2022-07-29T22:46:35.915Z,92.06
2022-07-29T22:49:02.512Z,91.22
2022-07-29T22:51:29.025Z,90.03
2022-07-29T22:53:55.443Z,89.72
2022-07-29T22:56:21.958Z,89.75
2022-07-29T22:58:49.129Z,90.52
2022-07-29T23:01:16.330Z,89.29
2022-07-29T23:04:02.788Z,88.77
2022-07-29T23:06:29.655Z,89.11
2022-07-29T23:08:56.150Z,90.61
2022-07-29T23:11:22.634Z,89.80
2022-07-29T23:13:49.111Z,90.92
2022-07-29T23:16:15.668Z,90.99
2022-07-29T23:18:53.406Z,89.53
2022-07-29T23:21:20.966Z,91.01
2022-07-29T23:23:48.499Z,89.60
2022-07-29T23:26:16.968Z,92.72
2022-07-29T23:28:44.111Z,94.29
2022-07-29T23:31:10.926Z,94.64
2022-07-29T23:33:37.491Z,93.35
2022-07-29T23:36:04.044Z,95.42
2022-07-29T23:38:30.564Z,96.23
2022-07-29T23:40:58.585Z,96.54
2022-07-29T23:43:25.205Z,95.24
2022-07-29T23:45:51.738Z,94.02
2022-07-29T23:48:20.824Z,93.15
2022-07-29T23:50:47.284Z,92.19
2022-07-29T23:53:13.864Z,93.95
2022-07-29T23:55:40.404Z,95.26
2022-07-29T23:58:06.934Z,95.58
